createdAt,value
2023-03-12T00:00:22.951Z,3.87
2023-03-12T00:01:30.585Z,4.51
2023-03-12T00:02:32.626Z,4.01
2023-03-12T00:03:34.764Z,4.19
2023-03-12T00:04:38.189Z,3.97
2023-03-12T00:05:42.745Z,4.15
2023-03-12T00:06:44.900Z,4.49
2023-03-12T00:07:46.827Z,3.79
2023-03-12T00:08:48.945Z,3.82
2023-03-12T00:09:51.036Z,4.04
2023-03-12T00:10:53.022Z,4.39
2023-03-12T00:11:54.931Z,3.72
2023-03-12T00:12:56.931Z,4.14
2023-03-12T00:13:58.950Z,3.93
2023-03-12T00:15:03.516Z,4.36
2023-03-12T00:16:11.141Z,4.86
2023-03-12T00:17:14.485Z,4.46
2023-03-12T00:18:16.603Z,5.14
2023-03-12T00:19:18.495Z,4.41
2023-03-12T00:20:21.687Z,4.93
2023-03-12T00:21:24.311Z,5.29
2023-03-12T00:22:26.199Z,5.22
2023-03-12T00:23:28.387Z,5.33
2023-03-12T00:24:30.434Z,5.63
2023-03-12T00:25:32.516Z,6.17
2023-03-12T00:26:34.928Z,5.32
2023-03-12T00:27:37.343Z,5.81
2023-03-12T00:28:39.959Z,5.37
2023-03-12T00:29:42.059Z,5.75
2023-03-12T00:30:44.121Z,5.98
2023-03-12T00:31:46.031Z,6.13
2023-03-12T00:32:48.072Z,5.70
2023-03-12T00:33:51.898Z,6.59
2023-03-12T00:34:55.592Z,6.27
2023-03-12T00:35:59.777Z,5.69
2023-03-12T00:37:02.038Z,6.12
2023-03-12T00:38:05.524Z,6.36
2023-03-12T00:39:07.789Z,6.48
2023-03-12T00:40:12.015Z,6.71
2023-03-12T00:41:14.116Z,6.56
2023-03-12T00:42:16.301Z,7.35
2023-03-12T00:43:18.361Z,6.16
2023-03-12T00:44:20.281Z,6.31
2023-03-12T00:45:22.158Z,7.00
2023-03-12T00:46:24.412Z,7.15
2023-03-12T00:47:26.621Z,7.69
2023-03-12T00:48:28.497Z,6.73
2023-03-12T00:49:30.577Z,6.69
2023-03-12T00:50:32.686Z,6.33
2023-03-12T00:51:34.791Z,7.12
2023-03-12T00:52:36.692Z,8.36
2023-03-12T00:53:39.630Z,6.82
2023-03-12T00:54:42.073Z,6.82
2023-03-12T00:55:43.935Z,6.95
2023-03-12T00:56:46.112Z,6.38
2023-03-12T00:57:48.293Z,6.86
2023-03-12T00:58:50.168Z,6.13
2023-03-12T00:59:52.129Z,6.21
2023-03-12T01:00:54.157Z,5.73
2023-03-12T01:01:57.355Z,5.72
2023-03-12T01:02:59.717Z,6.29
2023-03-12T01:04:02.054Z,6.79
2023-03-12T01:05:07.173Z,7.06
2023-03-12T01:06:09.409Z,6.80
2023-03-12T01:07:11.331Z,5.87
2023-03-12T01:08:13.333Z,6.25
2023-03-12T01:09:15.359Z,6.28
2023-03-12T01:10:21.728Z,6.12
2023-03-12T01:11:25.037Z,5.96
2023-03-12T01:12:29.399Z,6.09
2023-03-12T01:13:31.339Z,5.84
2023-03-12T01:14:33.213Z,6.35
2023-03-12T01:15:35.091Z,6.46
2023-03-12T01:16:37.141Z,6.15
2023-03-12T01:17:39.272Z,5.89
2023-03-12T01:18:42.746Z,5.50
2023-03-12T01:19:49.946Z,6.09
2023-03-12T01:20:52.554Z,5.35
2023-03-12T01:21:55.083Z,5.65
2023-03-12T01:22:57.005Z,5.27
2023-03-12T01:23:59.313Z,4.26
2023-03-12T01:25:02.581Z,3.72
2023-03-12T01:26:05.069Z,3.16
2023-03-12T01:27:06.976Z,2.70
2023-03-12T01:28:09.099Z,2.55
2023-03-12T01:29:11.038Z,2.96
2023-03-12T01:30:14.925Z,2.18
2023-03-12T01:31:19.367Z,1.91
2023-03-12T01:32:23.242Z,1.82
2023-03-12T01:33:25.738Z,2.04
2023-03-12T01:34:27.813Z,1.70
2023-03-12T01:35:29.739Z,1.72
2023-03-12T01:36:31.826Z,1.67
2023-03-12T01:37:33.985Z,1.47
2023-03-12T01:38:35.910Z,1.38
2023-03-12T01:39:37.817Z,1.56
2023-03-12T01:40:41.197Z,1.40
2023-03-12T01:41:43.961Z,1.64
2023-03-12T01:42:55.584Z,1.74
2023-03-12T01:43:58.656Z,1.57
2023-03-12T01:45:03.401Z,1.57
2023-03-12T01:46:40.305Z,1.74
2023-03-12T01:47:42.741Z,1.73
2023-03-12T01:49:00.727Z,1.71
2023-03-12T01:50:03.570Z,1.74
2023-03-12T01:51:07.795Z,1.87
2023-03-12T01:52:28.606Z,1.91
2023-03-12T01:53:31.472Z,1.64
2023-03-12T01:54:39.998Z,1.54
2023-03-12T01:55:42.774Z,1.79
2023-03-12T01:56:46.294Z,1.85
2023-03-12T01:57:52.266Z,1.69
2023-03-12T01:58:58.819Z,1.63
2023-03-12T02:02:21.977Z,1.68
2023-03-12T02:03:25.776Z,1.30
2023-03-12T02:04:30.401Z,0.86
2023-03-12T02:05:42.508Z,0.99
2023-03-12T02:06:54.656Z,1.03
2023-03-12T02:07:56.676Z,0.84
2023-03-12T02:09:01.174Z,1.09
2023-03-12T02:10:05.243Z,0.82
2023-03-12T02:11:07.264Z,1.07
2023-03-12T02:12:10.157Z,0.60
2023-03-12T02:13:12.792Z,0.80
2023-03-12T02:14:15.353Z,0.75
2023-03-12T02:15:18.538Z,0.96
2023-03-12T02:16:20.753Z,0.84
2023-03-12T02:17:22.998Z,0.83
2023-03-12T02:18:27.206Z,0.61
2023-03-12T02:19:51.278Z,1.06
2023-03-12T02:21:14.739Z,0.78
2023-03-12T02:22:17.465Z,0.92
2023-03-12T02:23:41.541Z,0.66
2023-03-12T02:24:52.995Z,1.00
2023-03-12T02:27:00.870Z,0.78
2023-03-12T02:28:06.502Z,0.77
2023-03-12T02:29:10.397Z,0.90
2023-03-12T02:30:15.835Z,0.92
2023-03-12T02:31:21.745Z,0.72
2023-03-12T02:32:27.511Z,0.94
2023-03-12T02:33:29.786Z,0.58
2023-03-12T02:34:31.934Z,0.88
2023-03-12T02:35:34.423Z,0.72
2023-03-12T02:36:37.214Z,0.72
2023-03-12T02:37:54.497Z,0.57
2023-03-12T02:38:56.868Z,0.60
2023-03-12T02:40:08.873Z,0.69
2023-03-12T02:43:29.890Z,0.91
2023-03-12T02:44:33.128Z,0.76
2023-03-12T02:45:37.220Z,1.19
2023-03-12T02:46:45.720Z,1.62
2023-03-12T02:47:47.796Z,1.27
2023-03-12T02:48:50.794Z,0.89
2023-03-12T02:49:52.696Z,1.09
2023-03-12T02:50:55.063Z,1.05
2023-03-12T02:51:57.330Z,1.11
2023-03-12T02:52:59.205Z,0.86
2023-03-12T02:54:01.099Z,0.92
2023-03-12T02:55:04.812Z,1.22
2023-03-12T02:56:07.570Z,0.95
2023-03-12T02:57:09.470Z,1.24
2023-03-12T02:58:11.451Z,1.53
2023-03-12T02:59:14.083Z,0.97
2023-03-12T03:00:19.942Z,1.10
2023-03-12T03:01:24.883Z,0.86
2023-03-12T03:02:28.233Z,1.16
2023-03-12T03:03:30.132Z,1.17
2023-03-12T03:04:32.625Z,1.29
2023-03-12T03:05:34.606Z,1.18
2023-03-12T03:06:39.700Z,1.21
2023-03-12T03:07:41.946Z,1.08
2023-03-12T03:08:44.088Z,1.14
2023-03-12T03:09:46.052Z,1.64
2023-03-12T03:10:50.528Z,1.33
2023-03-12T03:11:53.007Z,1.18
2023-03-12T03:12:55.143Z,1.19
2023-03-12T03:13:57.137Z,1.18
2023-03-12T03:14:59.498Z,1.27
2023-03-12T03:16:03.609Z,1.01
2023-03-12T03:17:06.430Z,1.19
2023-03-12T03:18:10.425Z,1.21
2023-03-12T03:19:12.888Z,1.67
2023-03-12T03:20:15.359Z,1.40
2023-03-12T03:21:17.416Z,1.43
2023-03-12T03:22:22.246Z,1.42
2023-03-12T03:23:25.925Z,1.39
2023-03-12T03:24:28.053Z,1.54
2023-03-12T03:25:29.934Z,1.83
2023-03-12T03:26:32.130Z,1.36
2023-03-12T03:27:35.276Z,1.45
2023-03-12T03:28:37.773Z,1.29
2023-03-12T03:29:40.458Z,1.33
2023-03-12T03:30:42.799Z,1.54
2023-03-12T03:31:46.913Z,1.59
2023-03-12T03:32:49.358Z,1.72
2023-03-12T03:33:51.560Z,1.73
2023-03-12T03:34:54.719Z,1.89
2023-03-12T03:35:59.196Z,5.49
2023-03-12T03:37:01.667Z,3.10
2023-03-12T03:38:03.717Z,4.30
2023-03-12T03:39:05.591Z,2.07
2023-03-12T03:40:09.607Z,1.59
2023-03-12T03:41:11.678Z,1.94
2023-03-12T03:42:13.804Z,1.95
2023-03-12T03:43:15.702Z,2.07
2023-03-12T03:44:18.412Z,1.97
2023-03-12T03:45:20.329Z,2.28
2023-03-12T03:46:22.357Z,1.83
2023-03-12T03:47:25.582Z,1.97
2023-03-12T03:48:28.659Z,1.99
2023-03-12T03:49:31.497Z,2.00
2023-03-12T03:50:33.520Z,2.37
2023-03-12T03:51:35.912Z,1.97
2023-03-12T03:52:38.011Z,2.14
2023-03-12T03:53:40.094Z,2.22
2023-03-12T03:54:42.023Z,1.76
2023-03-12T03:55:44.926Z,2.18
2023-03-12T03:56:47.132Z,1.76
2023-03-12T03:57:49.093Z,2.03
2023-03-12T03:58:52.075Z,2.21
2023-03-12T03:59:54.137Z,2.09
2023-03-12T04:00:56.697Z,1.81
2023-03-12T04:01:58.564Z,2.13
2023-03-12T04:03:00.634Z,2.05
2023-03-12T04:04:04.008Z,1.97
2023-03-12T04:05:06.769Z,1.79
2023-03-12T04:06:09.879Z,2.09
2023-03-12T04:07:11.774Z,2.14
2023-03-12T04:08:14.120Z,2.27
2023-03-12T04:09:15.993Z,2.12
2023-03-12T04:10:21.240Z,2.53
2023-03-12T04:11:23.574Z,2.46
2023-03-12T04:12:25.460Z,2.51
2023-03-12T04:13:27.320Z,2.08
2023-03-12T04:14:29.204Z,2.11
2023-03-12T04:15:31.095Z,1.96
2023-03-12T04:16:33.178Z,1.91
2023-03-12T04:17:35.069Z,1.77
2023-03-12T04:18:37.561Z,2.40
2023-03-12T04:19:40.547Z,2.46
2023-03-12T04:20:43.334Z,1.87
2023-03-12T04:21:45.336Z,2.10
2023-03-12T04:22:47.334Z,2.18
2023-03-12T04:23:50.102Z,1.81
2023-03-12T04:24:52.154Z,2.64
2023-03-12T04:25:56.050Z,1.82
2023-03-12T04:26:58.177Z,2.05
2023-03-12T04:28:00.163Z,2.21
2023-03-12T04:29:02.125Z,2.48
2023-03-12T04:30:08.101Z,2.32
2023-03-12T04:31:11.397Z,2.14
2023-03-12T04:32:14.377Z,2.34
2023-03-12T04:33:16.371Z,2.63
2023-03-12T04:34:20.066Z,3.01
2023-03-12T04:35:22.172Z,2.68
2023-03-12T04:36:25.911Z,2.55
2023-03-12T04:37:30.138Z,2.39
2023-03-12T04:38:34.574Z,2.58
2023-03-12T04:39:36.822Z,2.35
2023-03-12T04:40:38.941Z,2.87
2023-03-12T04:41:41.285Z,3.09
2023-03-12T04:42:43.208Z,3.29
2023-03-12T04:43:45.156Z,2.97
2023-03-12T04:44:47.105Z,3.03
2023-03-12T04:45:50.043Z,3.37
2023-03-12T04:46:52.061Z,2.49
2023-03-12T04:47:54.008Z,3.10
2023-03-12T04:48:55.875Z,3.23
2023-03-12T04:49:57.894Z,2.79
2023-03-12T04:50:59.855Z,2.92
2023-03-12T04:52:01.719Z,3.59
2023-03-12T04:53:03.630Z,3.70
2023-03-12T04:54:05.776Z,3.53
2023-03-12T04:55:08.503Z,3.35
2023-03-12T04:56:12.948Z,3.40
2023-03-12T04:57:14.856Z,3.27
2023-03-12T04:58:19.571Z,3.14
2023-03-12T04:59:21.527Z,3.82
2023-03-12T05:00:25.704Z,3.67
2023-03-12T05:01:30.527Z,3.49
2023-03-12T05:02:32.573Z,3.46
2023-03-12T05:03:34.788Z,3.72
2023-03-12T05:04:36.927Z,3.07
2023-03-12T05:05:39.724Z,3.66
2023-03-12T05:06:42.060Z,3.58
2023-03-12T05:07:44.149Z,3.47
2023-03-12T05:08:46.833Z,3.18
2023-03-12T05:09:48.715Z,3.27
2023-03-12T05:10:50.982Z,3.19
2023-03-12T05:11:53.091Z,3.71
2023-03-12T05:12:55.246Z,3.71
2023-03-12T05:13:58.485Z,3.71
2023-03-12T05:15:00.805Z,3.56
2023-03-12T05:16:03.561Z,3.74
2023-03-12T05:17:05.833Z,3.80
2023-03-12T05:18:07.865Z,3.43
2023-03-12T05:19:10.555Z,3.69
2023-03-12T05:20:13.248Z,3.61
2023-03-12T05:21:18.555Z,3.87
2023-03-12T05:22:20.622Z,3.67
2023-03-12T05:23:22.550Z,4.64
2023-03-12T05:24:25.973Z,4.23
2023-03-12T05:25:28.477Z,3.64
2023-03-12T05:26:32.945Z,3.41
2023-03-12T05:27:35.679Z,3.73
2023-03-12T05:28:37.586Z,3.61
2023-03-12T05:29:39.772Z,3.90
2023-03-12T05:30:42.013Z,3.67
2023-03-12T05:31:44.336Z,3.79
2023-03-12T05:32:46.895Z,3.93
2023-03-12T05:33:51.659Z,4.03
2023-03-12T05:34:53.408Z,4.41
2023-03-12T05:35:55.475Z,3.41
2023-03-12T05:36:58.362Z,3.63
2023-03-12T05:38:00.245Z,3.23
2023-03-12T05:39:02.637Z,3.47
2023-03-12T05:40:06.319Z,3.42
2023-03-12T05:41:12.218Z,3.58
2023-03-12T05:42:15.052Z,4.04
2023-03-12T05:43:17.172Z,5.30
2023-03-12T05:44:19.214Z,5.85
2023-03-12T05:45:21.312Z,5.09
2023-03-12T05:46:25.596Z,5.73
2023-03-12T05:47:27.639Z,4.23
2023-03-12T05:48:32.630Z,3.29
2023-03-12T05:49:34.674Z,3.80
2023-03-12T05:50:36.657Z,4.14
2023-03-12T05:51:38.762Z,3.57
2023-03-12T05:52:40.770Z,5.43
2023-03-12T05:53:43.487Z,4.21
2023-03-12T05:54:45.471Z,3.36
2023-03-12T05:55:47.522Z,3.66
2023-03-12T05:56:50.011Z,3.71
2023-03-12T05:57:52.063Z,3.33
2023-03-12T05:58:54.448Z,3.41
2023-03-12T05:59:56.561Z,3.25
2023-03-12T06:00:59.161Z,3.03
2023-03-12T06:02:02.059Z,3.39
2023-03-12T06:03:06.397Z,3.16
2023-03-12T06:04:08.908Z,3.62
2023-03-12T06:05:11.732Z,3.67
2023-03-12T06:06:14.965Z,3.30
2023-03-12T06:07:17.010Z,3.75
2023-03-12T06:08:18.937Z,3.35
2023-03-12T06:09:21.006Z,3.55
2023-03-12T06:10:22.987Z,3.66
2023-03-12T06:11:26.001Z,3.78
2023-03-12T06:12:30.500Z,3.22
2023-03-12T06:13:33.872Z,3.03
2023-03-12T06:14:36.034Z,3.24
2023-03-12T06:15:37.998Z,3.09
2023-03-12T06:16:40.739Z,2.69
2023-03-12T06:17:42.934Z,3.27
2023-03-12T06:18:44.932Z,3.74
2023-03-12T06:19:52.152Z,3.23
2023-03-12T06:20:54.353Z,3.26
2023-03-12T06:21:57.038Z,3.09
2023-03-12T06:22:58.944Z,3.02
2023-03-12T06:24:02.937Z,3.19
2023-03-12T06:25:06.213Z,3.38
2023-03-12T06:26:10.451Z,3.47
2023-03-12T06:27:17.244Z,3.12
2023-03-12T06:28:19.424Z,3.67
2023-03-12T06:29:21.300Z,3.49
2023-03-12T06:30:25.674Z,2.70
2023-03-12T06:31:27.786Z,3.08
2023-03-12T06:32:30.111Z,3.04
2023-03-12T06:33:32.677Z,3.21
2023-03-12T06:34:34.663Z,3.57
2023-03-12T06:35:36.568Z,3.30
2023-03-12T06:36:39.405Z,3.12
2023-03-12T06:37:41.702Z,2.86
2023-03-12T06:38:43.812Z,3.03
2023-03-12T06:39:45.753Z,3.44
2023-03-12T06:41:11.950Z,3.50
2023-03-12T06:42:13.865Z,3.12
2023-03-12T06:43:15.755Z,3.00
2023-03-12T06:44:17.771Z,3.09
2023-03-12T06:45:19.741Z,2.94
2023-03-12T06:46:21.908Z,2.33
2023-03-12T06:47:24.669Z,2.45
2023-03-12T06:48:30.620Z,2.51
2023-03-12T06:49:32.522Z,3.16
2023-03-12T06:50:34.519Z,3.17
2023-03-12T06:51:36.706Z,2.69
2023-03-12T06:52:38.774Z,4.97
2023-03-12T06:53:42.507Z,4.94
2023-03-12T06:54:47.555Z,4.63
2023-03-12T06:55:50.599Z,2.68
2023-03-12T06:56:52.619Z,3.12
2023-03-12T06:57:56.075Z,2.57
2023-03-12T06:58:58.120Z,2.96
2023-03-12T07:00:00.113Z,2.72
2023-03-12T07:01:03.210Z,3.13
2023-03-12T07:02:05.980Z,2.77
2023-03-12T07:03:08.910Z,2.58
2023-03-12T07:04:10.788Z,2.34
2023-03-12T07:05:13.323Z,2.43
2023-03-12T07:06:18.849Z,2.38
2023-03-12T07:07:20.760Z,2.13
2023-03-12T07:08:23.295Z,2.14
2023-03-12T07:09:26.368Z,2.31
2023-03-12T07:10:28.876Z,2.34
2023-03-12T07:11:31.242Z,2.50
2023-03-12T07:12:33.135Z,2.48
2023-03-12T07:13:35.723Z,2.59
2023-03-12T07:14:37.674Z,2.19
2023-03-12T07:15:40.281Z,2.27
2023-03-12T07:16:43.068Z,2.09
2023-03-12T07:17:45.251Z,2.19
2023-03-12T07:18:48.070Z,2.27
2023-03-12T07:19:50.834Z,2.08
2023-03-12T07:20:54.098Z,2.09
2023-03-12T07:21:56.742Z,2.06
2023-03-12T07:22:59.733Z,2.23
2023-03-12T07:24:01.854Z,2.15
2023-03-12T07:25:05.922Z,1.72
2023-03-12T07:26:08.410Z,2.32
2023-03-12T07:27:10.478Z,1.98
2023-03-12T07:28:12.962Z,1.77
2023-03-12T07:29:15.145Z,2.04
2023-03-12T07:30:18.790Z,2.20
2023-03-12T07:31:20.857Z,1.81
2023-03-12T07:32:22.950Z,1.77
2023-03-12T07:33:25.100Z,2.42
2023-03-12T07:34:27.371Z,2.45
2023-03-12T07:35:30.018Z,1.99
2023-03-12T07:36:34.076Z,1.98
2023-03-12T07:37:36.360Z,1.69
2023-03-12T07:38:38.518Z,1.83
2023-03-12T07:39:40.537Z,2.39
2023-03-12T07:40:43.177Z,2.42
2023-03-12T07:41:45.144Z,1.85
2023-03-12T07:42:47.025Z,1.63
2023-03-12T07:43:49.479Z,1.62
2023-03-12T07:44:51.750Z,1.71
2023-03-12T07:45:53.766Z,1.70
2023-03-12T07:47:00.070Z,1.63
2023-03-12T07:48:02.193Z,1.68
2023-03-12T07:49:04.496Z,1.87
2023-03-12T07:50:09.731Z,1.79
2023-03-12T07:51:11.809Z,2.64
2023-03-12T07:52:13.813Z,1.81
2023-03-12T07:53:16.181Z,1.73
2023-03-12T07:54:18.239Z,1.85
2023-03-12T07:55:21.725Z,1.83
2023-03-12T07:56:24.409Z,2.01
2023-03-12T07:57:27.990Z,1.92
2023-03-12T07:58:30.513Z,1.68
2023-03-12T07:59:34.299Z,1.71
2023-03-12T08:00:36.489Z,1.67
2023-03-12T08:01:38.526Z,1.36
2023-03-12T08:02:40.997Z,1.63
2023-03-12T08:03:43.558Z,1.79
2023-03-12T08:04:49.135Z,1.70
2023-03-12T08:06:00.237Z,1.96
2023-03-12T08:07:02.937Z,5.67
2023-03-12T08:08:06.625Z,2.37
2023-03-12T08:09:09.388Z,1.67
2023-03-12T08:10:12.027Z,3.08
2023-03-12T08:11:14.068Z,1.84
2023-03-12T08:12:17.505Z,1.92
2023-03-12T08:13:20.499Z,1.88
2023-03-12T08:14:22.856Z,1.61
2023-03-12T08:15:25.135Z,1.77
2023-03-12T08:16:27.675Z,1.76
2023-03-12T08:17:31.459Z,1.72
2023-03-12T08:18:33.848Z,1.68
2023-03-12T08:19:36.070Z,1.79
2023-03-12T08:20:38.136Z,1.40
2023-03-12T08:21:40.338Z,1.61
2023-03-12T08:22:43.240Z,1.43
2023-03-12T08:23:46.377Z,1.19
2023-03-12T08:24:48.969Z,1.53
2023-03-12T08:25:52.824Z,1.37
2023-03-12T08:26:56.387Z,1.69
2023-03-12T08:27:58.644Z,1.48
2023-03-12T08:29:01.058Z,1.29
2023-03-12T08:30:05.312Z,1.40
2023-03-12T08:31:07.680Z,1.10
2023-03-12T08:32:10.227Z,1.10
2023-03-12T08:33:12.872Z,1.45
2023-03-12T08:34:14.780Z,1.32
2023-03-12T08:35:17.200Z,1.01
2023-03-12T08:36:22.246Z,1.57
2023-03-12T08:37:23.511Z,1.35
2023-03-12T08:38:25.617Z,1.45
2023-03-12T08:39:28.594Z,1.33
2023-03-12T08:40:32.211Z,0.99
2023-03-12T08:41:34.183Z,0.96
2023-03-12T08:42:36.066Z,0.82
2023-03-12T08:43:37.941Z,0.80
2023-03-12T08:44:39.823Z,1.29
2023-03-12T08:45:41.858Z,0.89
2023-03-12T08:46:44.075Z,1.53
2023-03-12T08:47:45.995Z,4.32
2023-03-12T08:48:47.977Z,5.03
2023-03-12T08:49:49.862Z,2.47
2023-03-12T08:50:54.726Z,1.05
2023-03-12T08:51:56.662Z,1.23
2023-03-12T08:52:59.200Z,1.21
2023-03-12T08:54:01.216Z,1.30
2023-03-12T08:55:04.150Z,1.19
2023-03-12T08:56:07.131Z,1.07
2023-03-12T08:57:09.117Z,1.25
2023-03-12T08:58:11.160Z,0.87
2023-03-12T08:59:13.499Z,0.86
2023-03-12T09:00:17.970Z,0.95
2023-03-12T09:01:21.248Z,2.03
2023-03-12T09:02:24.028Z,1.86
2023-03-12T09:03:26.566Z,1.12
2023-03-12T09:04:28.686Z,1.10
2023-03-12T09:05:35.074Z,1.37
2023-03-12T09:06:37.506Z,1.19
2023-03-12T09:07:40.022Z,1.61
2023-03-12T09:08:43.504Z,1.61
2023-03-12T09:09:46.632Z,0.86
2023-03-12T09:10:50.426Z,0.99
2023-03-12T09:11:52.315Z,1.04
2023-03-12T09:12:54.404Z,2.45
2023-03-12T09:14:28.358Z,1.09
2023-03-12T09:15:04.774Z,1.40
2023-03-12T09:16:06.684Z,1.34
2023-03-12T09:17:08.592Z,1.18
2023-03-12T09:18:10.452Z,0.77
2023-03-12T09:19:12.429Z,1.07
2023-03-12T09:20:14.438Z,1.09
2023-03-12T09:21:16.501Z,1.18
2023-03-12T09:22:18.651Z,1.93
2023-03-12T09:23:20.545Z,1.36
2023-03-12T09:24:22.681Z,1.23
2023-03-12T09:25:24.691Z,0.97
2023-03-12T09:26:28.227Z,1.27
2023-03-12T09:27:32.663Z,1.18
2023-03-12T09:28:34.826Z,0.99
2023-03-12T09:29:41.385Z,0.93
2023-03-12T09:30:41.090Z,0.76
2023-03-12T09:31:43.108Z,0.92
2023-03-12T09:32:45.464Z,1.03
2023-03-12T09:33:47.749Z,2.27
2023-03-12T09:34:50.054Z,1.29
2023-03-12T09:35:57.706Z,0.90
2023-03-12T09:37:00.978Z,0.96
2023-03-12T09:38:03.412Z,1.11
2023-03-12T09:39:05.542Z,2.24
2023-03-12T09:40:11.925Z,1.30
2023-03-12T09:41:20.396Z,1.53
2023-03-12T09:42:26.158Z,0.96
2023-03-12T09:43:40.678Z,1.03
2023-03-12T09:44:46.303Z,1.38
2023-03-12T09:45:49.482Z,2.33
2023-03-12T09:46:55.825Z,2.63
2023-03-12T09:48:01.278Z,2.21
2023-03-12T09:49:06.962Z,3.67
2023-03-12T09:51:51.691Z,1.19
2023-03-12T09:53:00.667Z,1.23
2023-03-12T09:54:06.345Z,1.04
2023-03-12T09:55:12.408Z,0.83
2023-03-12T09:56:17.627Z,1.13
2023-03-12T09:57:23.296Z,1.18
2023-03-12T09:59:41.576Z,1.74
2023-03-12T10:00:45.302Z,0.99
2023-03-12T10:01:54.128Z,0.99
2023-03-12T10:03:11.753Z,1.05
2023-03-12T10:04:45.416Z,1.19
2023-03-12T10:05:57.776Z,0.83
2023-03-12T10:07:12.768Z,3.19
2023-03-12T10:08:31.398Z,2.84
2023-03-12T10:09:49.588Z,1.62
2023-03-12T10:11:11.894Z,1.54
2023-03-12T10:12:29.851Z,0.93
2023-03-12T10:13:47.325Z,1.20
2023-03-12T10:15:01.942Z,1.36
2023-03-12T10:16:26.007Z,0.80
2023-03-12T10:17:40.786Z,1.31
2023-03-12T10:19:03.736Z,6.03
2023-03-12T10:20:40.841Z,1.43
2023-03-12T10:21:49.332Z,0.82
2023-03-12T10:23:03.537Z,0.77
2023-03-12T10:24:25.511Z,1.37
2023-03-12T10:25:34.236Z,1.39
2023-03-12T10:26:39.662Z,0.94
2023-03-12T10:27:43.269Z,1.09
2023-03-12T10:28:58.327Z,1.05
2023-03-12T10:30:02.193Z,1.32
2023-03-12T10:31:13.998Z,0.97
2023-03-12T10:32:25.730Z,0.81
2023-03-12T10:33:52.216Z,0.76
2023-03-12T10:34:57.433Z,0.84
2023-03-12T10:35:59.954Z,0.87
2023-03-12T10:37:06.374Z,0.90
2023-03-12T10:38:21.000Z,1.11
2023-03-12T10:39:22.906Z,1.19
2023-03-12T10:40:28.205Z,1.24
2023-03-12T10:41:34.634Z,1.31
2023-03-12T10:42:35.954Z,1.06
2023-03-12T10:43:38.053Z,0.73
2023-03-12T10:44:39.920Z,0.91
2023-03-12T10:45:48.535Z,1.01
2023-03-12T10:47:00.526Z,0.69
2023-03-12T10:48:06.069Z,0.90
2023-03-12T10:49:29.386Z,0.86
2023-03-12T10:50:34.336Z,1.10
2023-03-12T10:51:56.353Z,1.09
2023-03-12T10:53:21.916Z,1.27
2023-03-12T10:54:37.510Z,1.02
2023-03-12T10:55:39.542Z,1.13
2023-03-12T10:56:50.351Z,1.17
2023-03-12T10:57:55.978Z,1.16
2023-03-12T10:58:57.897Z,1.28
2023-03-12T11:00:03.729Z,1.10
2023-03-12T11:01:12.286Z,1.17
2023-03-12T11:02:35.833Z,1.17
2023-03-12T11:03:39.920Z,1.19
2023-03-12T11:04:45.565Z,1.28
2023-03-12T11:05:50.939Z,1.48
2023-03-12T11:07:13.431Z,1.06
2023-03-12T11:08:30.469Z,1.23
2023-03-12T11:09:32.996Z,1.47
2023-03-12T11:10:44.595Z,1.31
2023-03-12T11:11:49.313Z,1.43
2023-03-12T11:12:54.821Z,1.48
2023-03-12T11:14:09.080Z,1.61
2023-03-12T11:15:26.821Z,1.54
2023-03-12T11:16:31.914Z,1.46
2023-03-12T11:17:32.689Z,1.53
2023-03-12T11:18:36.405Z,1.65
2023-03-12T11:19:38.296Z,1.63
2023-03-12T11:20:40.282Z,1.31
2023-03-12T11:21:45.913Z,3.87
2023-03-12T11:22:51.141Z,3.78
2023-03-12T11:24:04.614Z,1.83
2023-03-12T11:25:09.243Z,2.27
2023-03-12T11:26:15.569Z,2.02
2023-03-12T11:27:43.741Z,1.21
2023-03-12T11:28:52.704Z,1.26
2023-03-12T11:29:55.047Z,1.46
2023-03-12T11:30:59.051Z,1.34
2023-03-12T11:32:05.145Z,1.19
2023-03-12T11:33:10.060Z,1.06
2023-03-12T11:34:15.754Z,1.54
2023-03-12T11:35:21.491Z,1.04
2023-03-12T11:36:47.101Z,1.47
2023-03-12T11:38:09.539Z,1.26
2023-03-12T11:39:34.575Z,1.03
2023-03-12T11:40:49.614Z,1.01
2023-03-12T11:42:07.563Z,0.99
2023-03-12T11:43:42.680Z,2.03
2023-03-12T11:44:46.799Z,1.36
2023-03-12T11:46:13.862Z,1.22
2023-03-12T11:47:41.041Z,1.43
2023-03-12T11:48:46.830Z,1.52
2023-03-12T11:50:04.624Z,0.95
2023-03-12T11:51:34.585Z,1.76
2023-03-12T11:52:52.592Z,1.33
2023-03-12T11:53:58.284Z,1.70
2023-03-12T11:56:25.682Z,1.58
2023-03-12T11:59:02.771Z,1.53
2023-03-12T12:00:17.343Z,1.74
2023-03-12T12:01:24.403Z,1.49
2023-03-12T12:02:30.687Z,1.27
2023-03-12T12:04:08.723Z,1.20
2023-03-12T12:05:48.418Z,1.19
2023-03-12T12:07:16.784Z,1.64
2023-03-12T12:08:48.756Z,1.18
2023-03-12T12:10:59.314Z,1.48
2023-03-12T12:12:11.169Z,1.81
2023-03-12T12:13:42.716Z,1.03
2023-03-12T12:14:51.435Z,1.23
2023-03-12T12:16:00.287Z,1.02
2023-03-12T12:17:21.250Z,1.20
2023-03-12T12:18:36.112Z,1.07
2023-03-12T12:19:42.614Z,1.24
2023-03-12T12:21:17.644Z,1.62
2023-03-12T12:22:28.835Z,1.15
2023-03-12T12:24:39.177Z,2.01
2023-03-12T12:26:03.621Z,1.66
2023-03-12T12:27:20.773Z,1.27
2023-03-12T12:28:41.014Z,1.58
2023-03-12T12:29:46.824Z,1.90
2023-03-12T12:31:07.835Z,1.46
2023-03-12T12:32:16.291Z,1.31
2023-03-12T12:33:21.938Z,1.56
2023-03-12T12:34:46.281Z,1.62
2023-03-12T12:35:49.042Z,1.69
2023-03-12T12:36:57.574Z,1.19
2023-03-12T12:38:09.077Z,1.64
2023-03-12T12:40:24.521Z,1.77
2023-03-12T12:42:34.979Z,1.67
2023-03-12T12:43:43.086Z,1.42
2023-03-12T12:44:51.204Z,1.39
2023-03-12T12:45:57.011Z,1.53
2023-03-12T12:47:02.990Z,1.51
2023-03-12T12:50:26.358Z,1.76
2023-03-12T12:53:00.649Z,1.36
2023-03-12T12:54:30.615Z,1.26
2023-03-12T12:55:36.382Z,1.30
2023-03-12T12:56:45.398Z,1.25
2023-03-12T12:58:21.233Z,1.26
2023-03-12T12:59:39.507Z,1.37
2023-03-12T13:00:51.371Z,1.86
2023-03-12T13:01:56.536Z,1.48
2023-03-12T13:02:59.433Z,1.49
2023-03-12T13:04:14.364Z,1.64
2023-03-12T13:05:38.533Z,1.48
2023-03-12T13:07:02.771Z,1.47
2023-03-12T13:08:07.114Z,1.49
2023-03-12T13:09:15.672Z,1.83
2023-03-12T13:10:36.935Z,1.92
2023-03-12T13:11:42.660Z,1.68
2023-03-12T13:12:51.318Z,1.64
2023-03-12T13:14:06.271Z,1.43
2023-03-12T13:15:29.971Z,1.53
2023-03-12T13:16:37.499Z,1.58
2023-03-12T13:18:10.715Z,1.78
2023-03-12T13:19:16.432Z,1.57
2023-03-12T13:20:21.546Z,1.77
2023-03-12T13:21:57.376Z,1.92
2023-03-12T13:23:06.268Z,1.79
2023-03-12T13:24:21.091Z,1.93
2023-03-12T13:25:55.742Z,1.80
2023-03-12T13:27:19.458Z,2.08
2023-03-12T13:28:28.078Z,2.98
2023-03-12T13:29:33.752Z,2.38
2023-03-12T13:30:42.355Z,2.29
2023-03-12T13:31:45.879Z,2.16
2023-03-12T13:32:51.646Z,2.58
2023-03-12T13:34:00.353Z,2.21
2023-03-12T13:35:14.737Z,1.76
2023-03-12T13:36:20.838Z,2.17
2023-03-12T13:37:47.912Z,1.92
2023-03-12T13:39:08.214Z,1.88
2023-03-12T13:40:32.889Z,1.70
2023-03-12T13:41:49.942Z,2.38
2023-03-12T13:43:10.738Z,1.99
2023-03-12T13:44:31.531Z,2.48
2023-03-12T13:45:49.489Z,2.36
2023-03-12T13:47:12.482Z,2.24
2023-03-12T13:48:17.817Z,2.33
2023-03-12T13:49:20.732Z,2.18
2023-03-12T13:50:23.362Z,2.25
2023-03-12T13:51:25.703Z,2.70
2023-03-12T13:52:40.437Z,3.31
2023-03-12T13:53:46.139Z,2.46
2023-03-12T13:55:03.719Z,5.69
2023-03-12T13:56:13.458Z,5.49
2023-03-12T13:57:38.910Z,2.71
2023-03-12T13:58:45.169Z,3.14
2023-03-12T13:59:50.693Z,2.70
2023-03-12T14:02:14.686Z,2.71
2023-03-12T14:03:29.340Z,2.79
2023-03-12T14:04:38.047Z,3.19
2023-03-12T14:05:55.994Z,3.11
2023-03-12T14:07:20.075Z,3.09
2023-03-12T14:08:48.468Z,3.54
2023-03-12T14:10:15.397Z,3.24
2023-03-12T14:11:33.369Z,3.46
2023-03-12T14:12:48.089Z,3.37
2023-03-12T14:14:19.681Z,3.38
2023-03-12T14:15:31.536Z,3.57
2023-03-12T14:16:49.182Z,3.91
2023-03-12T14:17:57.649Z,3.52
2023-03-12T14:19:03.123Z,3.55
2023-03-12T14:20:18.685Z,3.56
2023-03-12T14:21:22.906Z,3.37
2023-03-12T14:22:28.615Z,4.15
2023-03-12T14:23:40.455Z,3.77
2023-03-12T14:24:53.039Z,3.59
2023-03-12T14:26:04.067Z,4.23
2023-03-12T14:27:12.360Z,3.99
2023-03-12T14:28:20.452Z,4.01
2023-03-12T14:29:32.390Z,3.96
2023-03-12T14:30:40.938Z,3.62
2023-03-12T14:31:44.698Z,4.25
2023-03-12T14:32:47.215Z,4.15
2023-03-12T14:33:58.935Z,4.48
2023-03-12T14:35:26.044Z,3.98
2023-03-12T14:36:44.144Z,4.19
2023-03-12T14:37:58.560Z,4.38
2023-03-12T14:39:19.636Z,4.08
2023-03-12T14:40:42.159Z,3.71
2023-03-12T14:41:47.883Z,4.25
2023-03-12T14:42:50.059Z,3.91
2023-03-12T14:43:53.741Z,3.94
2023-03-12T14:45:11.435Z,4.34
2023-03-12T14:46:17.393Z,3.84
2023-03-12T14:47:19.553Z,4.32
2023-03-12T14:48:24.751Z,4.15
2023-03-12T14:49:28.580Z,4.29
2023-03-12T14:50:39.951Z,4.34
2023-03-12T14:51:43.160Z,3.75
2023-03-12T14:52:47.645Z,4.31
2023-03-12T14:53:50.671Z,4.44
2023-03-12T14:54:58.979Z,3.83
2023-03-12T14:56:14.218Z,3.65
2023-03-12T14:57:20.924Z,3.75
2023-03-12T14:58:22.880Z,3.93
2023-03-12T14:59:28.342Z,3.81
2023-03-12T15:00:30.549Z,3.90